Terminal Aerodrome Forecast
Issued by NWS Portland, ME

Home | Current Version | Previous Version | Text Only | Print | Product List | Glossary On
Versions: 1 2 3 4 5 6 7 8 9 10 11 12 13 14 15 16 17 18 19
000
FTUS41 KGYX 011603 AAA
TAFPWM
TAF AMD
KPWM 011603Z 0116/0212 26009G16KT P6SM FEW090 BKN110
     FM012000 23010G16KT P6SM VCSH SCT080
     FM020000 27004KT P6SM SCT060=

USA.gov is the U.S. government's official web portal to all federal, state and local government web resources and services.